sensor_id;sensor_type;location;lat;lon;timestamp;temperature;humidity
4725;DHT22;2376;53.544;10.226;2023-05-07T00:01:35;11.50;99.90
4725;DHT22;2376;53.544;10.226;2023-05-07T00:04:02;11.60;99.90
4725;DHT22;2376;53.544;10.226;2023-05-07T00:06:31;11.40;99.90
4725;DHT22;2376;53.544;10.226;2023-05-07T00:08:58;11.60;99.90
4725;DHT22;2376;53.544;10.226;2023-05-07T00:11:26;10.80;99.90
4725;DHT22;2376;53.544;10.226;2023-05-07T00:13:53;10.30;99.90
4725;DHT22;2376;53.544;10.226;2023-05-07T00:16:20;10.30;99.90
4725;DHT22;2376;53.544;10.226;2023-05-07T00:18:46;10.60;99.90
4725;DHT22;2376;53.544;10.226;2023-05-07T00:21:13;11.20;99.90
4725;DHT22;2376;53.544;10.226;2023-05-07T00:23:41;11.30;99.90
4725;DHT22;2376;53.544;10.226;2023-05-07T00:26:08;10.40;99.90
4725;DHT22;2376;53.544;10.226;2023-05-07T00:28:35;10.00;99.90
4725;DHT22;2376;53.544;10.226;2023-05-07T00:31:01;9.90;99.90
4725;DHT22;2376;53.544;10.226;2023-05-07T00:33:28;9.70;99.90
4725;DHT22;2376;53.544;10.226;2023-05-07T00:35:55;9.60;99.90
4725;DHT22;2376;53.544;10.226;2023-05-07T00:38:22;9.90;99.90
4725;DHT22;2376;53.544;10.226;2023-05-07T00:40:50;10.00;99.90
4725;DHT22;2376;53.544;10.226;2023-05-07T00:43:17;9.90;99.90
4725;DHT22;2376;53.544;10.226;2023-05-07T00:45:43;9.70;99.90
4725;DHT22;2376;53.544;10.226;2023-05-07T00:48:11;9.90;99.90
4725;DHT22;2376;53.544;10.226;2023-05-07T00:50:38;10.10;99.90
4725;DHT22;2376;53.544;10.226;2023-05-07T00:53:05;10.60;99.90
4725;DHT22;2376;53.544;10.226;2023-05-07T00:55:33;10.70;99.90
4725;DHT22;2376;53.544;10.226;2023-05-07T00:58:01;11.10;99.90
4725;DHT22;2376;53.544;10.226;2023-05-07T01:00:28;11.40;99.90
4725;DHT22;2376;53.544;10.226;2023-05-07T01:02:54;11.50;99.90
4725;DHT22;2376;53.544;10.226;2023-05-07T01:05:23;11.60;99.90
4725;DHT22;2376;53.544;10.226;2023-05-07T01:07:51;11.30;99.90
4725;DHT22;2376;53.544;10.226;2023-05-07T01:10:19;10.10;99.90
4725;DHT22;2376;53.544;10.226;2023-05-07T01:12:46;10.10;99.90
4725;DHT22;2376;53.544;10.226;2023-05-07T01:15:16;9.50;99.90
4725;DHT22;2376;53.544;10.226;2023-05-07T01:17:43;9.60;99.90
4725;DHT22;2376;53.544;10.226;2023-05-07T01:20:11;9.80;99.90
4725;DHT22;2376;53.544;10.226;2023-05-07T01:22:39;9.30;99.90
4725;DHT22;2376;53.544;10.226;2023-05-07T01:25:07;9.00;99.90
4725;DHT22;2376;53.544;10.226;2023-05-07T01:27:34;9.10;99.90
4725;DHT22;2376;53.544;10.226;2023-05-07T01:30:02;9.10;99.90
4725;DHT22;2376;53.544;10.226;2023-05-07T01:32:33;9.20;99.90
4725;DHT22;2376;53.544;10.226;2023-05-07T01:35:03;9.50;99.90
4725;DHT22;2376;53.544;10.226;2023-05-07T01:37:32;10.10;99.90
4725;DHT22;2376;53.544;10.226;2023-05-07T01:40:01;9.50;99.90
4725;DHT22;2376;53.544;10.226;2023-05-07T01:42:29;9.30;99.90
4725;DHT22;2376;53.544;10.226;2023-05-07T01:44:56;9.40;99.90
4725;DHT22;2376;53.544;10.226;2023-05-07T01:47:23;9.20;99.90
4725;DHT22;2376;53.544;10.226;2023-05-07T01:49:50;9.00;99.90
4725;DHT22;2376;53.544;10.226;2023-05-07T01:52:17;8.80;99.90
4725;DHT22;2376;53.544;10.226;2023-05-07T01:54:44;8.90;99.90
4725;DHT22;2376;53.544;10.226;2023-05-07T01:57:12;9.40;99.90
4725;DHT22;2376;53.544;10.226;2023-05-07T01:59:39;9.90;99.90
4725;DHT22;2376;53.544;10.226;2023-05-07T02:02:06;10.00;99.90
4725;DHT22;2376;53.544;10.226;2023-05-07T02:04:32;10.00;99.90
4725;DHT22;2376;53.544;10.226;2023-05-07T02:06:59;9.90;99.90
4725;DHT22;2376;53.544;10.226;2023-05-07T02:09:26;9.80;99.90
4725;DHT22;2376;53.544;10.226;2023-05-07T02:11:53;10.10;99.90
4725;DHT22;2376;53.544;10.226;2023-05-07T02:14:21;9.60;99.90
4725;DHT22;2376;53.544;10.226;2023-05-07T02:16:48;9.40;99.90
4725;DHT22;2376;53.544;10.226;2023-05-07T02:19:15;9.40;99.90
4725;DHT22;2376;53.544;10.226;2023-05-07T02:21:41;9.10;99.90
4725;DHT22;2376;53.544;10.226;2023-05-07T02:24:08;8.90;99.90
4725;DHT22;2376;53.544;10.226;2023-05-07T02:26:35;8.80;99.90
4725;DHT22;2376;53.544;10.226;2023-05-07T02:29:02;9.40;99.90
4725;DHT22;2376;53.544;10.226;2023-05-07T02:31:30;9.90;99.90
4725;DHT22;2376;53.544;10.226;2023-05-07T02:33:56;9.80;99.90
4725;DHT22;2376;53.544;10.226;2023-05-07T02:36:23;10.00;99.90
4725;DHT22;2376;53.544;10.226;2023-05-07T02:38:50;10.40;99.90
4725;DHT22;2376;53.544;10.226;2023-05-07T02:41:16;9.60;99.90
4725;DHT22;2376;53.544;10.226;2023-05-07T02:43:43;9.10;99.90
4725;DHT22;2376;53.544;10.226;2023-05-07T02:46:10;9.00;99.90
4725;DHT22;2376;53.544;10.226;2023-05-07T02:48:38;8.90;99.90
4725;DHT22;2376;53.544;10.226;2023-05-07T02:51:05;9.20;99.90
4725;DHT22;2376;53.544;10.226;2023-05-07T02:53:32;9.10;99.90
4725;DHT22;2376;53.544;10.226;2023-05-07T02:55:59;8.90;99.90
4725;DHT22;2376;53.544;10.226;2023-05-07T02:58:26;9.30;99.90
4725;DHT22;2376;53.544;10.226;2023-05-07T03:00:53;8.90;99.90
4725;DHT22;2376;53.544;10.226;2023-05-07T03:03:21;8.60;99.90
4725;DHT22;2376;53.544;10.226;2023-05-07T03:05:49;8.70;99.90
4725;DHT22;2376;53.544;10.226;2023-05-07T03:08:15;9.00;99.90
4725;DHT22;2376;53.544;10.226;2023-05-07T03:10:42;8.90;99.90
4725;DHT22;2376;53.544;10.226;2023-05-07T03:13:09;8.90;99.90
4725;DHT22;2376;53.544;10.226;2023-05-07T03:15:36;9.00;99.90
4725;DHT22;2376;53.544;10.226;2023-05-07T03:18:03;9.10;99.90
4725;DHT22;2376;53.544;10.226;2023-05-07T03:20:29;8.80;99.90
4725;DHT22;2376;53.544;10.226;2023-05-07T03:22:57;9.00;99.90
4725;DHT22;2376;53.544;10.226;2023-05-07T03:25:24;9.30;99.90
4725;DHT22;2376;53.544;10.226;2023-05-07T03:27:51;9.70;99.90
4725;DHT22;2376;53.544;10.226;2023-05-07T03:30:18;9.40;99.90
4725;DHT22;2376;53.544;10.226;2023-05-07T03:32:45;9.90;99.90
4725;DHT22;2376;53.544;10.226;2023-05-07T03:35:12;9.90;99.90
4725;DHT22;2376;53.544;10.226;2023-05-07T03:37:39;10.30;99.90
4725;DHT22;2376;53.544;10.226;2023-05-07T03:40:08;10.70;99.90
4725;DHT22;2376;53.544;10.226;2023-05-07T03:42:36;10.40;99.90
4725;DHT22;2376;53.544;10.226;2023-05-07T03:45:03;9.90;99.90
4725;DHT22;2376;53.544;10.226;2023-05-07T03:47:30;9.80;99.90
4725;DHT22;2376;53.544;10.226;2023-05-07T03:49:57;10.10;99.90
4725;DHT22;2376;53.544;10.226;2023-05-07T03:52:24;10.30;99.90
4725;DHT22;2376;53.544;10.226;2023-05-07T03:54:52;10.30;99.90
4725;DHT22;2376;53.544;10.226;2023-05-07T03:57:20;9.80;99.90
4725;DHT22;2376;53.544;10.226;2023-05-07T03:59:47;10.20;99.90
4725;DHT22;2376;53.544;10.226;2023-05-07T04:02:13;10.70;99.90
4725;DHT22;2376;53.544;10.226;2023-05-07T04:04:40;11.10;99.90
4725;DHT22;2376;53.544;10.226;2023-05-07T04:07:07;11.00;99.90
4725;DHT22;2376;53.544;10.226;2023-05-07T04:09:34;11.20;99.90
4725;DHT22;2376;53.544;10.226;2023-05-07T04:12:01;11.10;99.90
4725;DHT22;2376;53.544;10.226;2023-05-07T04:14:29;11.00;99.90
4725;DHT22;2376;53.544;10.226;2023-05-07T04:16:57;10.70;99.90
4725;DHT22;2376;53.544;10.226;2023-05-07T04:19:24;10.20;99.90
4725;DHT22;2376;53.544;10.226;2023-05-07T04:21:51;9.50;99.90
4725;DHT22;2376;53.544;10.226;2023-05-07T04:24:18;9.90;99.90
4725;DHT22;2376;53.544;10.226;2023-05-07T04:26:45;9.30;99.90
4725;DHT22;2376;53.544;10.226;2023-05-07T04:29:12;9.10;99.90
4725;DHT22;2376;53.544;10.226;2023-05-07T04:31:40;9.00;99.90
4725;DHT22;2376;53.544;10.226;2023-05-07T04:34:09;9.00;99.90
4725;DHT22;2376;53.544;10.226;2023-05-07T04:36:37;9.10;99.90
4725;DHT22;2376;53.544;10.226;2023-05-07T04:39:04;9.10;99.90
4725;DHT22;2376;53.544;10.226;2023-05-07T04:41:32;9.70;99.90
4725;DHT22;2376;53.544;10.226;2023-05-07T04:43:58;9.50;99.90
4725;DHT22;2376;53.544;10.226;2023-05-07T04:46:25;9.60;99.90
4725;DHT22;2376;53.544;10.226;2023-05-07T04:48:53;9.20;99.90
4725;DHT22;2376;53.544;10.226;2023-05-07T04:54:35;9.60;99.90
4725;DHT22;2376;53.544;10.226;2023-05-07T04:57:03;9.90;99.90
4725;DHT22;2376;53.544;10.226;2023-05-07T04:59:30;9.40;99.90
4725;DHT22;2376;53.544;10.226;2023-05-07T05:01:57;9.50;99.90
4725;DHT22;2376;53.544;10.226;2023-05-07T05:04:25;10.10;99.90
4725;DHT22;2376;53.544;10.226;2023-05-07T05:06:51;9.70;99.90
4725;DHT22;2376;53.544;10.226;2023-05-07T05:09:18;9.70;99.90
4725;DHT22;2376;53.544;10.226;2023-05-07T05:11:45;9.50;99.90
4725;DHT22;2376;53.544;10.226;2023-05-07T05:14:12;9.50;99.90
4725;DHT22;2376;53.544;10.226;2023-05-07T05:16:39;9.60;99.90
4725;DHT22;2376;53.544;10.226;2023-05-07T05:19:05;9.70;99.90
4725;DHT22;2376;53.544;10.226;2023-05-07T05:21:33;9.70;99.90
4725;DHT22;2376;53.544;10.226;2023-05-07T05:24:00;10.20;99.90
4725;DHT22;2376;53.544;10.226;2023-05-07T05:26:27;9.70;99.90
4725;DHT22;2376;53.544;10.226;2023-05-07T05:28:54;10.10;99.90
4725;DHT22;2376;53.544;10.226;2023-05-07T05:31:20;9.70;99.90
4725;DHT22;2376;53.544;10.226;2023-05-07T05:33:47;9.40;99.90
4725;DHT22;2376;53.544;10.226;2023-05-07T05:36:14;9.70;99.90
4725;DHT22;2376;53.544;10.226;2023-05-07T05:38:42;9.70;99.90
4725;DHT22;2376;53.544;10.226;2023-05-07T05:41:09;9.20;99.90
4725;DHT22;2376;53.544;10.226;2023-05-07T05:43:36;9.70;99.90
4725;DHT22;2376;53.544;10.226;2023-05-07T05:46:03;9.60;99.90
4725;DHT22;2376;53.544;10.226;2023-05-07T05:48:30;9.40;99.90
4725;DHT22;2376;53.544;10.226;2023-05-07T05:50:57;10.20;99.90
4725;DHT22;2376;53.544;10.226;2023-05-07T05:53:23;10.50;99.90
4725;DHT22;2376;53.544;10.226;2023-05-07T05:55:52;10.20;99.90
4725;DHT22;2376;53.544;10.226;2023-05-07T05:58:18;9.90;99.90
4725;DHT22;2376;53.544;10.226;2023-05-07T06:00:46;9.70;99.90
4725;DHT22;2376;53.544;10.226;2023-05-07T06:03:13;9.80;99.90
4725;DHT22;2376;53.544;10.226;2023-05-07T06:05:40;9.80;99.90
4725;DHT22;2376;53.544;10.226;2023-05-07T06:08:07;9.60;99.90
4725;DHT22;2376;53.544;10.226;2023-05-07T06:10:34;9.40;99.90
4725;DHT22;2376;53.544;10.226;2023-05-07T06:13:03;9.40;99.90
4725;DHT22;2376;53.544;10.226;2023-05-07T06:15:30;10.20;99.90
4725;DHT22;2376;53.544;10.226;2023-05-07T06:17:56;10.90;99.90
4725;DHT22;2376;53.544;10.226;2023-05-07T06:20:23;10.90;99.90
4725;DHT22;2376;53.544;10.226;2023-05-07T06:22:50;10.70;99.90
4725;DHT22;2376;53.544;10.226;2023-05-07T06:25:17;11.10;99.90
4725;DHT22;2376;53.544;10.226;2023-05-07T06:27:44;11.20;99.90
4725;DHT22;2376;53.544;10.226;2023-05-07T06:30:12;10.80;99.90
4725;DHT22;2376;53.544;10.226;2023-05-07T06:32:40;11.00;99.90
4725;DHT22;2376;53.544;10.226;2023-05-07T06:35:08;11.30;99.90
4725;DHT22;2376;53.544;10.226;2023-05-07T06:37:34;11.80;99.90
4725;DHT22;2376;53.544;10.226;2023-05-07T06:40:04;12.00;99.90
4725;DHT22;2376;53.544;10.226;2023-05-07T06:42:32;11.70;99.90
4725;DHT22;2376;53.544;10.226;2023-05-07T06:44:59;11.70;99.90
4725;DHT22;2376;53.544;10.226;2023-05-07T06:47:27;10.70;99.90
4725;DHT22;2376;53.544;10.226;2023-05-07T06:49:54;10.40;99.90
4725;DHT22;2376;53.544;10.226;2023-05-07T06:52:20;10.70;99.90
4725;DHT22;2376;53.544;10.226;2023-05-07T06:54:47;10.60;99.90
4725;DHT22;2376;53.544;10.226;2023-05-07T06:57:14;10.60;99.90
4725;DHT22;2376;53.544;10.226;2023-05-07T06:59:41;10.60;99.90
4725;DHT22;2376;53.544;10.226;2023-05-07T07:02:08;11.10;99.90
4725;DHT22;2376;53.544;10.226;2023-05-07T07:04:36;10.80;99.90
4725;DHT22;2376;53.544;10.226;2023-05-07T07:07:03;10.00;99.90
4725;DHT22;2376;53.544;10.226;2023-05-07T07:09:29;10.70;99.90
4725;DHT22;2376;53.544;10.226;2023-05-07T07:11:56;11.20;99.90
4725;DHT22;2376;53.544;10.226;2023-05-07T07:14:23;10.90;99.90
4725;DHT22;2376;53.544;10.226;2023-05-07T07:16:50;11.10;99.90
4725;DHT22;2376;53.544;10.226;2023-05-07T07:19:16;11.20;99.90
4725;DHT22;2376;53.544;10.226;2023-05-07T07:21:45;11.10;99.90
4725;DHT22;2376;53.544;10.226;2023-05-07T07:24:12;10.60;99.90
4725;DHT22;2376;53.544;10.226;2023-05-07T07:26:44;10.60;99.90
4725;DHT22;2376;53.544;10.226;2023-05-07T07:29:11;10.40;99.90
4725;DHT22;2376;53.544;10.226;2023-05-07T07:31:37;11.00;99.90
4725;DHT22;2376;53.544;10.226;2023-05-07T07:34:04;11.40;99.90
4725;DHT22;2376;53.544;10.226;2023-05-07T07:38:59;10.90;99.90
4725;DHT22;2376;53.544;10.226;2023-05-07T07:41:26;11.60;99.90
4725;DHT22;2376;53.544;10.226;2023-05-07T07:43:53;11.00;99.90
4725;DHT22;2376;53.544;10.226;2023-05-07T07:46:20;11.20;99.90
4725;DHT22;2376;53.544;10.226;2023-05-07T07:48:47;11.00;99.90
4725;DHT22;2376;53.544;10.226;2023-05-07T07:51:14;11.30;99.90
4725;DHT22;2376;53.544;10.226;2023-05-07T07:53:41;11.00;99.90
4725;DHT22;2376;53.544;10.226;2023-05-07T07:56:09;10.40;99.90
4725;DHT22;2376;53.544;10.226;2023-05-07T07:58:36;10.80;99.90
4725;DHT22;2376;53.544;10.226;2023-05-07T08:01:03;11.60;99.90
4725;DHT22;2376;53.544;10.226;2023-05-07T08:03:30;11.00;99.90
4725;DHT22;2376;53.544;10.226;2023-05-07T08:05:58;10.60;99.90
4725;DHT22;2376;53.544;10.226;2023-05-07T08:08:25;11.10;99.90
4725;DHT22;2376;53.544;10.226;2023-05-07T08:10:52;11.20;99.90
4725;DHT22;2376;53.544;10.226;2023-05-07T08:13:20;10.80;99.90
4725;DHT22;2376;53.544;10.226;2023-05-07T08:15:47;10.60;99.90
4725;DHT22;2376;53.544;10.226;2023-05-07T08:18:13;10.70;99.90
4725;DHT22;2376;53.544;10.226;2023-05-07T08:20:40;10.70;99.90
4725;DHT22;2376;53.544;10.226;2023-05-07T08:23:08;10.60;99.90
4725;DHT22;2376;53.544;10.226;2023-05-07T08:25:35;11.20;99.90
4725;DHT22;2376;53.544;10.226;2023-05-07T08:28:03;11.50;99.90
4725;DHT22;2376;53.544;10.226;2023-05-07T08:30:31;11.50;99.90
4725;DHT22;2376;53.544;10.226;2023-05-07T08:32:57;11.30;99.90
4725;DHT22;2376;53.544;10.226;2023-05-07T08:35:24;11.70;99.90
4725;DHT22;2376;53.544;10.226;2023-05-07T08:37:52;11.40;99.90
4725;DHT22;2376;53.544;10.226;2023-05-07T08:40:19;11.00;99.90
4725;DHT22;2376;53.544;10.226;2023-05-07T08:42:49;10.70;99.90
4725;DHT22;2376;53.544;10.226;2023-05-07T08:45:18;10.50;99.90
4725;DHT22;2376;53.544;10.226;2023-05-07T08:47:50;11.00;99.90
4725;DHT22;2376;53.544;10.226;2023-05-07T08:50:18;11.30;99.90
4725;DHT22;2376;53.544;10.226;2023-05-07T08:52:47;11.40;99.90
4725;DHT22;2376;53.544;10.226;2023-05-07T08:55:14;11.30;99.90
4725;DHT22;2376;53.544;10.226;2023-05-07T08:57:41;10.90;99.90
4725;DHT22;2376;53.544;10.226;2023-05-07T09:00:09;11.50;99.90
4725;DHT22;2376;53.544;10.226;2023-05-07T09:02:37;11.10;99.90
4725;DHT22;2376;53.544;10.226;2023-05-07T09:05:06;11.80;99.90
4725;DHT22;2376;53.544;10.226;2023-05-07T09:07:34;12.20;99.90
4725;DHT22;2376;53.544;10.226;2023-05-07T09:10:02;11.80;99.90
4725;DHT22;2376;53.544;10.226;2023-05-07T09:12:29;12.00;99.90
4725;DHT22;2376;53.544;10.226;2023-05-07T09:14:56;12.30;99.90
4725;DHT22;2376;53.544;10.226;2023-05-07T09:17:23;12.90;99.90
4725;DHT22;2376;53.544;10.226;2023-05-07T09:22:20;13.50;99.90
4725;DHT22;2376;53.544;10.226;2023-05-07T09:39:42;14.30;99.90
4725;DHT22;2376;53.544;10.226;2023-05-07T09:42:09;13.80;99.90
4725;DHT22;2376;53.544;10.226;2023-05-07T09:56:58;13.10;99.90
4725;DHT22;2376;53.544;10.226;2023-05-07T09:59:28;12.70;99.90
4725;DHT22;2376;53.544;10.226;2023-05-07T10:01:58;12.60;99.90
4725;DHT22;2376;53.544;10.226;2023-05-07T10:04:25;12.80;99.90
4725;DHT22;2376;53.544;10.226;2023-05-07T10:06:53;12.50;99.90
4725;DHT22;2376;53.544;10.226;2023-05-07T10:09:21;12.40;99.90
4725;DHT22;2376;53.544;10.226;2023-05-07T10:11:49;12.80;99.90
4725;DHT22;2376;53.544;10.226;2023-05-07T10:14:17;13.00;99.90
4725;DHT22;2376;53.544;10.226;2023-05-07T10:16:47;13.20;99.90
4725;DHT22;2376;53.544;10.226;2023-05-07T10:19:14;13.20;99.90
4725;DHT22;2376;53.544;10.226;2023-05-07T10:21:46;13.80;99.90
4725;DHT22;2376;53.544;10.226;2023-05-07T10:24:20;14.30;99.90
4725;DHT22;2376;53.544;10.226;2023-05-07T10:26:50;13.60;99.90
4725;DHT22;2376;53.544;10.226;2023-05-07T10:29:28;13.00;99.90
4725;DHT22;2376;53.544;10.226;2023-05-07T10:32:01;12.60;99.90
4725;DHT22;2376;53.544;10.226;2023-05-07T10:34:37;13.20;99.90
4725;DHT22;2376;53.544;10.226;2023-05-07T10:37:05;13.30;99.90
4725;DHT22;2376;53.544;10.226;2023-05-07T10:39:32;13.80;99.90
4725;DHT22;2376;53.544;10.226;2023-05-07T10:42:08;14.20;99.90
4725;DHT22;2376;53.544;10.226;2023-05-07T10:44:36;14.30;99.90
4725;DHT22;2376;53.544;10.226;2023-05-07T10:47:05;13.30;99.90
4725;DHT22;2376;53.544;10.226;2023-05-07T10:49:31;13.40;99.90
4725;DHT22;2376;53.544;10.226;2023-05-07T10:52:12;13.50;99.90
4725;DHT22;2376;53.544;10.226;2023-05-07T10:54:40;14.00;99.90
4725;DHT22;2376;53.544;10.226;2023-05-07T10:57:34;15.30;99.90
4725;DHT22;2376;53.544;10.226;2023-05-07T11:00:04;14.90;99.90
4725;DHT22;2376;53.544;10.226;2023-05-07T11:03:06;15.40;99.90
4725;DHT22;2376;53.544;10.226;2023-05-07T11:05:34;15.30;99.90
4725;DHT22;2376;53.544;10.226;2023-05-07T11:08:01;14.40;99.90
4725;DHT22;2376;53.544;10.226;2023-05-07T11:10:50;15.00;99.90
4725;DHT22;2376;53.544;10.226;2023-05-07T11:13:17;15.40;99.90
4725;DHT22;2376;53.544;10.226;2023-05-07T11:15:47;15.90;99.90
4725;DHT22;2376;53.544;10.226;2023-05-07T11:18:16;14.90;99.90
4725;DHT22;2376;53.544;10.226;2023-05-07T11:20:56;14.50;99.90
4725;DHT22;2376;53.544;10.226;2023-05-07T11:26:46;15.30;99.90
4725;DHT22;2376;53.544;10.226;2023-05-07T11:29:14;15.90;99.90
4725;DHT22;2376;53.544;10.226;2023-05-07T11:31:43;15.90;99.90
4725;DHT22;2376;53.544;10.226;2023-05-07T11:34:11;15.70;99.90
4725;DHT22;2376;53.544;10.226;2023-05-07T11:36:42;16.10;99.90
4725;DHT22;2376;53.544;10.226;2023-05-07T11:39:27;16.60;99.90
4725;DHT22;2376;53.544;10.226;2023-05-07T11:41:53;16.50;99.90
4725;DHT22;2376;53.544;10.226;2023-05-07T11:44:20;16.00;99.90
4725;DHT22;2376;53.544;10.226;2023-05-07T11:46:49;16.30;99.90
4725;DHT22;2376;53.544;10.226;2023-05-07T11:49:17;15.80;99.90
4725;DHT22;2376;53.544;10.226;2023-05-07T11:54:15;16.00;99.90
4725;DHT22;2376;53.544;10.226;2023-05-07T11:56:44;16.10;99.90
4725;DHT22;2376;53.544;10.226;2023-05-07T11:59:11;16.10;99.90
4725;DHT22;2376;53.544;10.226;2023-05-07T12:01:38;15.60;99.90
4725;DHT22;2376;53.544;10.226;2023-05-07T12:04:06;15.60;99.90
4725;DHT22;2376;53.544;10.226;2023-05-07T12:06:36;16.00;99.90
4725;DHT22;2376;53.544;10.226;2023-05-07T12:09:04;16.10;99.90
4725;DHT22;2376;53.544;10.226;2023-05-07T12:11:32;16.50;99.90
4725;DHT22;2376;53.544;10.226;2023-05-07T12:13:59;17.00;99.90
4725;DHT22;2376;53.544;10.226;2023-05-07T12:16:26;17.30;99.90
4725;DHT22;2376;53.544;10.226;2023-05-07T12:18:53;18.00;99.90
4725;DHT22;2376;53.544;10.226;2023-05-07T12:21:22;18.00;98.40
4725;DHT22;2376;53.544;10.226;2023-05-07T12:23:49;16.50;99.90
4725;DHT22;2376;53.544;10.226;2023-05-07T12:26:16;16.40;99.90
4725;DHT22;2376;53.544;10.226;2023-05-07T12:28:46;16.50;99.90
4725;DHT22;2376;53.544;10.226;2023-05-07T12:31:14;17.10;99.90
4725;DHT22;2376;53.544;10.226;2023-05-07T12:33:41;16.20;99.90
4725;DHT22;2376;53.544;10.226;2023-05-07T12:36:08;15.80;99.90
4725;DHT22;2376;53.544;10.226;2023-05-07T12:38:38;15.90;99.90
4725;DHT22;2376;53.544;10.226;2023-05-07T12:41:06;16.80;99.90
4725;DHT22;2376;53.544;10.226;2023-05-07T12:43:33;17.60;99.90
4725;DHT22;2376;53.544;10.226;2023-05-07T12:46:01;17.90;99.90
4725;DHT22;2376;53.544;10.226;2023-05-07T12:48:28;18.40;98.50
4725;DHT22;2376;53.544;10.226;2023-05-07T12:50:56;17.90;98.80
4725;DHT22;2376;53.544;10.226;2023-05-07T12:53:24;17.10;99.90
4725;DHT22;2376;53.544;10.226;2023-05-07T12:55:54;16.70;99.90
4725;DHT22;2376;53.544;10.226;2023-05-07T12:58:24;17.10;99.90
4725;DHT22;2376;53.544;10.226;2023-05-07T13:00:51;17.80;99.90
4725;DHT22;2376;53.544;10.226;2023-05-07T13:03:22;17.30;99.90
4725;DHT22;2376;53.544;10.226;2023-05-07T13:05:49;16.20;99.90
4725;DHT22;2376;53.544;10.226;2023-05-07T13:08:27;16.00;99.90
4725;DHT22;2376;53.544;10.226;2023-05-07T13:10:57;16.00;99.90
4725;DHT22;2376;53.544;10.226;2023-05-07T13:13:23;16.00;99.90
4725;DHT22;2376;53.544;10.226;2023-05-07T13:15:50;16.20;99.90
4725;DHT22;2376;53.544;10.226;2023-05-07T13:18:17;15.90;99.90
4725;DHT22;2376;53.544;10.226;2023-05-07T13:20:43;15.60;99.90
4725;DHT22;2376;53.544;10.226;2023-05-07T13:23:10;15.70;99.90
4725;DHT22;2376;53.544;10.226;2023-05-07T13:25:37;16.10;99.90
4725;DHT22;2376;53.544;10.226;2023-05-07T13:28:05;16.40;99.90
4725;DHT22;2376;53.544;10.226;2023-05-07T13:30:32;16.60;99.90
4725;DHT22;2376;53.544;10.226;2023-05-07T13:32:58;16.60;99.90
4725;DHT22;2376;53.544;10.226;2023-05-07T13:35:25;16.30;99.90
4725;DHT22;2376;53.544;10.226;2023-05-07T13:37:52;16.50;99.90
4725;DHT22;2376;53.544;10.226;2023-05-07T13:40:20;16.80;99.90
4725;DHT22;2376;53.544;10.226;2023-05-07T13:42:46;16.90;99.90
4725;DHT22;2376;53.544;10.226;2023-05-07T13:45:15;16.50;99.90
4725;DHT22;2376;53.544;10.226;2023-05-07T13:47:41;16.70;99.90
4725;DHT22;2376;53.544;10.226;2023-05-07T13:50:09;17.10;99.90
4725;DHT22;2376;53.544;10.226;2023-05-07T13:52:36;17.30;99.10
4725;DHT22;2376;53.544;10.226;2023-05-07T13:55:04;16.90;99.10
4725;DHT22;2376;53.544;10.226;2023-05-07T13:57:31;16.70;99.90
4725;DHT22;2376;53.544;10.226;2023-05-07T13:59:57;17.00;99.90
4725;DHT22;2376;53.544;10.226;2023-05-07T14:02:25;17.10;99.90
4725;DHT22;2376;53.544;10.226;2023-05-07T14:04:52;17.30;99.90
4725;DHT22;2376;53.544;10.226;2023-05-07T14:07:19;17.50;98.90
4725;DHT22;2376;53.544;10.226;2023-05-07T14:09:45;17.40;96.80
4725;DHT22;2376;53.544;10.226;2023-05-07T14:12:12;17.30;99.90
4725;DHT22;2376;53.544;10.226;2023-05-07T14:14:38;17.40;98.00
4725;DHT22;2376;53.544;10.226;2023-05-07T14:17:05;17.20;98.70
4725;DHT22;2376;53.544;10.226;2023-05-07T14:19:33;17.40;99.40
4725;DHT22;2376;53.544;10.226;2023-05-07T14:22:00;17.60;95.60
4725;DHT22;2376;53.544;10.226;2023-05-07T14:24:26;17.80;98.20
4725;DHT22;2376;53.544;10.226;2023-05-07T14:26:53;18.00;95.50
4725;DHT22;2376;53.544;10.226;2023-05-07T14:29:20;18.40;92.60
4725;DHT22;2376;53.544;10.226;2023-05-07T14:31:47;18.30;87.00
4725;DHT22;2376;53.544;10.226;2023-05-07T14:34:14;18.40;86.60
4725;DHT22;2376;53.544;10.226;2023-05-07T14:36:42;18.30;90.20
4725;DHT22;2376;53.544;10.226;2023-05-07T14:39:09;18.10;93.50
4725;DHT22;2376;53.544;10.226;2023-05-07T14:41:36;18.10;92.50
4725;DHT22;2376;53.544;10.226;2023-05-07T14:44:02;18.50;94.80
4725;DHT22;2376;53.544;10.226;2023-05-07T14:46:30;18.80;90.10
4725;DHT22;2376;53.544;10.226;2023-05-07T14:48:57;18.80;83.20
4725;DHT22;2376;53.544;10.226;2023-05-07T14:51:23;18.40;82.80
4725;DHT22;2376;53.544;10.226;2023-05-07T14:53:52;18.00;84.50
4725;DHT22;2376;53.544;10.226;2023-05-07T14:56:19;17.90;89.50
4725;DHT22;2376;53.544;10.226;2023-05-07T14:58:47;17.90;89.30
4725;DHT22;2376;53.544;10.226;2023-05-07T15:01:14;17.50;90.20
4725;DHT22;2376;53.544;10.226;2023-05-07T15:03:41;17.60;90.50
4725;DHT22;2376;53.544;10.226;2023-05-07T15:06:07;17.70;92.90
4725;DHT22;2376;53.544;10.226;2023-05-07T15:08:34;17.90;91.70
4725;DHT22;2376;53.544;10.226;2023-05-07T15:11:02;17.40;90.70
4725;DHT22;2376;53.544;10.226;2023-05-07T15:13:29;17.40;92.50
4725;DHT22;2376;53.544;10.226;2023-05-07T15:15:55;17.60;92.00
4725;DHT22;2376;53.544;10.226;2023-05-07T15:18:23;17.80;90.00
4725;DHT22;2376;53.544;10.226;2023-05-07T15:20:49;18.10;88.70
4725;DHT22;2376;53.544;10.226;2023-05-07T15:23:16;17.50;92.70
4725;DHT22;2376;53.544;10.226;2023-05-07T15:25:43;17.20;95.60
4725;DHT22;2376;53.544;10.226;2023-05-07T15:28:11;17.30;97.80
4725;DHT22;2376;53.544;10.226;2023-05-07T15:30:38;17.60;95.40
4725;DHT22;2376;53.544;10.226;2023-05-07T15:33:04;17.90;93.90
4725;DHT22;2376;53.544;10.226;2023-05-07T15:35:31;17.80;94.50
4725;DHT22;2376;53.544;10.226;2023-05-07T15:37:58;17.70;91.50
4725;DHT22;2376;53.544;10.226;2023-05-07T15:40:25;17.50;92.90
4725;DHT22;2376;53.544;10.226;2023-05-07T15:42:54;17.50;93.10
4725;DHT22;2376;53.544;10.226;2023-05-07T15:45:23;17.80;91.60
4725;DHT22;2376;53.544;10.226;2023-05-07T15:47:50;17.80;89.10
4725;DHT22;2376;53.544;10.226;2023-05-07T15:50:17;18.00;90.90
4725;DHT22;2376;53.544;10.226;2023-05-07T15:52:43;17.90;90.10
4725;DHT22;2376;53.544;10.226;2023-05-07T15:55:11;18.10;87.40
4725;DHT22;2376;53.544;10.226;2023-05-07T15:57:38;18.00;90.30
4725;DHT22;2376;53.544;10.226;2023-05-07T16:00:07;18.10;90.00
4725;DHT22;2376;53.544;10.226;2023-05-07T16:02:38;18.00;90.60
4725;DHT22;2376;53.544;10.226;2023-05-07T16:05:05;17.90;92.80
4725;DHT22;2376;53.544;10.226;2023-05-07T16:07:34;17.80;90.50
4725;DHT22;2376;53.544;10.226;2023-05-07T16:10:01;18.00;87.30
4725;DHT22;2376;53.544;10.226;2023-05-07T16:12:28;18.10;86.30
4725;DHT22;2376;53.544;10.226;2023-05-07T16:14:55;18.30;86.40
4725;DHT22;2376;53.544;10.226;2023-05-07T16:17:22;18.10;85.80
4725;DHT22;2376;53.544;10.226;2023-05-07T16:19:50;17.80;88.30
4725;DHT22;2376;53.544;10.226;2023-05-07T16:22:17;17.20;91.20
4725;DHT22;2376;53.544;10.226;2023-05-07T16:24:44;17.50;92.30
4725;DHT22;2376;53.544;10.226;2023-05-07T16:27:10;17.50;90.00
4725;DHT22;2376;53.544;10.226;2023-05-07T16:29:37;17.70;90.60
4725;DHT22;2376;53.544;10.226;2023-05-07T16:32:04;17.90;85.90
4725;DHT22;2376;53.544;10.226;2023-05-07T16:34:31;17.80;85.20